Bookmark and Share
Track history (hours):
 

Minerva Virgo

Last reported at 2014-Apr-13 17:33 UTC. Time now 2014-Apr-25 04:46 UTC.
Position N 40°22' W 067°40'.
Warning: this ship's position is 11 days out of date.

Length 182 m; draft 9.9 m.

Type: Tanker. MMSI: 240730000.

NotesDate/timePositionNaut miles runAvg speedWind from/ knotsBaromVisibWave heightAir tempDewpointWater temp
2014-Apr-13 17:33N 40°22' W 067°40'1211.5
2014-Apr-13 16:30N 40°19' W 067°55'1112.0
2014-Apr-13 15:33N 40°16' W 068°10'1110.8
2014-Apr-13 14:32N 40°13' W 068°24'2110.5
2014-Apr-13 12:33N 40°06' W 068°49'1310.1
2014-Apr-13 11:17N 40°02' W 069°06'710.1
2014-Apr-13 10:33N 40°02' W 069°15'1110.6
2014-Apr-13 09:33N 39°60' W 069°29'1110.7
2014-Apr-13 08:33N 39°55' W 069°41'1111.2
2014-Apr-13 07:33N 39°49' W 069°54'1110.9
2014-Apr-13 06:33N 39°39' W 069°59'1211.6
2014-Apr-13 05:33N 39°28' W 070°03'1111.5
2014-Apr-13 04:33N 39°17' W 070°07'7911.3
2014-Apr-12 21:33N 38°15' W 071°09'  
2014-Apr-10 07:10N 26°27' W 079°25'913.9
2014-Apr-10 06:33N 26°19' W 079°25'1413.9
2014-Apr-10 05:33N 26°05' W 079°27'1514.3
2014-Apr-10 04:32N 25°51' W 079°29'  
2014-Apr-06 23:20N 29°21' W 094°46'911.9
2014-Apr-06 22:33N 29°29' W 094°51'10 9.6
2014-Apr-06 21:33N 29°37' W 094°57'9 8.5
2014-Apr-06 20:33N 29°44' W 095°03'3 0.1
2014-Apr-05 18:33N 29°45' W 095°06'3 0.2
2014-Apr-05 02:04N 29°44' W 095°03'1 1.9
2014-Apr-05 01:33N 29°44' W 095°02'9 9.1
2014-Apr-05 00:33N 29°36' W 094°57'1211.5
2014-Apr-04 23:33N 29°26' W 094°50'1210.9
2014-Apr-04 22:29N 29°19' W 094°39'  

Dump ship's entire track history

sailing weather and tide predictions

Minerva Virgo — SXXT — position and weather